• Join FlightAware (Why Join?)
  • Login
  • US Flag 
10:18PM EST


 

Airport Tracker/Info


-or-


 

Live Flight TrackerFlight Track Log ✈ GJS3707 ✈ 03-Jun-2013 ✈ KBOI - KORD

Flight Track Log - Related Links

Times and Time Zones

All times are in EDT time to prevent confusion due to time zone crossing. See the GJS3707 flight status page for this flight to view local times or setup timezone preferences in your user account.

Time Position Orientation Groundspeed Altitude Reporting Facility
EDT Latitude Longitude Course Direction KTS MPH feet Rate Location/Type
05:13PM 43.6542 -115.5813 78° East  Level FlightAware Approximate
05:14PM 43.6741 -115.4186 83° East  Level FlightAware Approximate
05:15PM 43.6922 -115.2569 65° Northeast  Level FlightAware Approximate
05:15PM 43.7128 -115.9375 82° East 327 376 13,700  Level Salt Lake Center
05:16PM 43.7154 -115.0956 81° East  Level FlightAware Approximate
05:16PM 43.7303 -115.7867 81° East 351 404 15,700  Level Salt Lake Center
05:17PM 43.7335 -114.9322 76° East  Level FlightAware Approximate
05:17PM 43.7472 -115.6483 80° East 374 430 17,500  Level Salt Lake Center
05:18PM 43.7620 -114.7716 76° East  Level FlightAware Approximate
05:18PM 43.7656 -115.4844 81° East 386 444 19,700  Level Salt Lake Center
05:19PM 43.7876 -114.6102 82° East  Level FlightAware Approximate
05:19PM 43.7806 -115.3425 82° East 389 448 21,400  Level Salt Lake Center
05:20PM 43.8049 -114.4464 82° East  Level FlightAware Approximate
05:20PM 43.7981 -115.1925 81° East 411 473 22,400  Level Salt Lake Center
05:21PM 43.8192 -115.0067 81° East 441 507 23,500 1,020 Climbing Salt Lake Center
05:22PM 43.8383 -114.8372 81° East 463 533 24,500 1,020 Climbing Salt Lake Center
05:23PM 43.8597 -114.6336 82° East 479 551 25,700 1,080 Climbing Salt Lake Center
05:24PM 43.8789 -114.4564 81° East 485 558 26,800 1,080 Climbing Salt Lake Center
05:25PM 43.9008 -114.2467 82° East 493 567 28,000 1,080 Climbing Salt Lake Center
05:26PM 43.9203 -114.0661 81° East 496 571 29,100 1,020 Climbing Salt Lake Center
05:27PM 43.9389 -113.8728 82° East 494 568 30,200 1,020 Climbing Salt Lake Center
05:28PM 43.9561 -113.6919 82° East 494 568 31,300 900 Climbing Salt Lake Center
05:29PM 43.9742 -113.4800 83° East 494 568 32,100 720 Climbing Salt Lake Center
05:30PM 43.9928 -113.2972 82° East 498 573 32,800 780 Climbing Salt Lake Center
05:31PM 44.0128 -113.0836 83° East 501 577 33,800 900 Climbing Salt Lake Center
05:32PM 44.0289 -112.9022 83° East 495 570 34,700 540 Climbing Salt Lake Center
05:33PM 44.0478 -112.6894 83° East 499 574 35,000 120 Climbing Salt Lake Center
05:34PM 44.0650 -112.5044 83° East 505 581 35,000  Level Salt Lake Center
05:35PM 44.0814 -112.2847 84° East 513 590 35,000  Level Salt Lake Center
05:36PM 44.0894 -112.0964 87° East 510 587 35,000  Level Salt Lake Center
05:37PM 44.0922 -111.8806 89° East 504 580 35,000  Level Salt Lake Center
05:38PM 44.0933 -111.6944 89° East 505 581 35,000  Level Salt Lake Center
05:39PM 44.0939 -111.4786 90° East 505 581 35,000  Level Salt Lake Center
05:40PM 44.0953 -111.2922 89° East 506 582 35,000  Level Salt Lake Center
05:41PM 44.0942 -111.0744 90° East 508 585 35,000  Level Salt Lake Center
05:42PM 44.0942 -110.8864 90° East 510 587 35,000  Level Salt Lake Center
05:44PM 44.0942 -110.6656 90° East 513 590 35,000  Level Salt Lake Center
05:45PM 44.0931 -110.4744 90° East 517 595 35,000  Level Salt Lake Center
05:46PM 44.0933 -110.2822 90° East 519 597 35,000  Level Salt Lake Center
05:47PM 44.0900 -110.0594 91° East 516 594 35,000  Level Salt Lake Center
05:48PM 44.0881 -109.8642 91° East 524 603 35,000  Level Salt Lake Center
05:49PM 44.0856 -109.6367 91° East 527 606 35,000  Level Salt Lake Center
05:50PM 44.0833 -109.4453 91° East 533 613 35,000  Level Salt Lake Center
05:51PM 44.0797 -109.2158 91° East 533 613 35,000  Level Salt Lake Center
05:52PM 44.0761 -109.0158 91° East 541 623 35,000  Level Salt Lake Center
05:53PM 44.0708 -108.7833 92° East 541 623 35,000  Level Salt Lake Center
05:54PM 44.0667 -108.5844 92° East 541 623 35,000  Level Salt Lake Center
05:55PM 44.0617 -108.3517 92° East 542 624 35,000  Level Salt Lake Center
05:56PM 44.0567 -108.1522 92° East 542 624 35,000  Level Salt Lake Center
05:57PM 44.0508 -107.9225 92° East 537 618 35,000  Level Salt Lake Center
05:58PM 44.0444 -107.7228 92° East 541 623 35,000  Level Salt Lake Center
05:59PM 44.0372 -107.4906 92° East 542 624 35,000  Level Salt Lake Center
06:00PM 44.0317 -107.2936 92° East 538 619 35,000  Level Salt Lake Center
06:01PM 44.0228 -107.0642 93° East 536 617 35,000  Level Salt Lake Center
06:01PM 44.0217 -106.9997 91° East 532 612 35,000  Level Denver Center
06:02PM 44.0158 -106.8683 93° East 535 616 35,000  Level Salt Lake Center
06:03PM 44.0100 -106.6714 92° East 536 617 35,000  Level Salt Lake Center
06:03PM 44.0061 -106.5678 93° East 540 621 35,000  Level Denver Center
06:04PM 43.9997 -106.3692 92° East 538 619 35,000  Level Denver Center
06:05PM 44.0003 -106.2381 90° East 543 625 35,000  Level Salt Lake Center
06:06PM 44.0056 -105.9964 88° East 551 634 35,000  Level Salt Lake Center
06:07PM 44.0047 -105.9303 91° East 547 629 35,000  Level Denver Center
06:08PM 44.0058 -105.7283 89° East 546 628 35,000  Level Denver Center
06:09PM 44.0047 -105.4936 90° East 545 627 35,000  Level Denver Center
06:10PM 44.0044 -105.2944 90° East 541 623 35,000  Level Denver Center
06:11PM 44.0039 -105.0619 90° East 538 619 35,000  Level Denver Center
06:12PM 44.0022 -104.8647 91° East 535 616 35,000  Level Denver Center
06:13PM 44.0003 -104.6036 91° East 529 609 35,000  Level Denver Center
06:14PM 43.9986 -104.4094 91° East 526 605 35,000  Level Denver Center
06:15PM 43.9961 -104.2497 91° East 519 597 35,000  Level Denver Center
06:16PM 43.9939 -103.9917 91° East 522 601 35,000  Level Denver Center
06:17PM 43.9917 -103.7697 91° East 515 593 35,000  Level Denver Center
06:18PM 43.9867 -103.5467 92° East 517 595 35,000  Level Denver Center
06:19PM 43.9836 -103.3256 91° East 514 592 35,000  Level Denver Center
06:20PM 43.9806 -103.1364 91° East 512 589 35,000  Level Denver Center
06:21PM 43.9767 -102.9161 91° East 511 588 35,000  Level Denver Center
06:22PM 43.9706 -102.7453 93° East 513 590 35,000  Level Denver Center
06:23PM 43.9619 -102.5089 93° East 513 590 35,000  Level Denver Center
06:24PM 43.9544 -102.3103 93° East 514 592 35,000  Level Denver Center
06:26PM 43.9467 -102.1128 93° East 514 592 35,000  Level Denver Center
06:27PM 43.9394 -101.9153 93° East 514 592 35,000  Level Denver Center
06:28PM 43.9319 -101.7186 93° East 513 590 35,000  Level Denver Center
06:29PM 43.9294 -101.5258 91° East 508 585 35,000  Level Denver Center
06:29PM 43.9242 -101.4478 95° East 511 588 35,000  Level Minneapolis Center
06:30PM 43.9181 -101.2881 93° East 518 596 35,000  Level Denver Center
06:30PM 43.9161 -101.2128 92° East 511 588 35,000  Level Minneapolis Center
06:31PM 43.9111 -101.0908 93° East 515 593 35,000  Level Denver Center
06:31PM 43.9075 -101.0131 94° East 517 595 35,000  Level Minneapolis Center
06:32PM 43.8997 -100.8156 93° East 517 595 35,000  Level Minneapolis Center
06:33PM 43.8911 -100.6197 93° East 514 592 35,000  Level Minneapolis Center
06:34PM 43.8808 -100.4214 94° East 515 593 35,000  Level Minneapolis Center
06:35PM 43.8719 -100.2250 94° East 515 593 35,000  Level Minneapolis Center
06:36PM 43.8631 -100.0331 94° East 507 583 35,000  Level Minneapolis Center
06:37PM 43.8503 -99.8019 94° East 504 580 35,000  Level Minneapolis Center
06:38PM 43.8394 -99.6042 94° East 511 588 35,000  Level Minneapolis Center
06:39PM 43.8281 -99.4125 95° East 506 582 35,000  Level Minneapolis Center
06:40PM 43.8189 -99.2172 94° East 510 587 35,000  Level Minneapolis Center
06:41PM 43.8064 -99.0258 95° East 503 579 35,000  Level Minneapolis Center
06:42PM 43.7956 -98.8319 94° East 506 582 35,000  Level Minneapolis Center
06:43PM 43.7819 -98.6308 95° East 506 582 35,000  Level Minneapolis Center
06:44PM 43.7672 -98.4006 95° East 503 579 35,000  Level Minneapolis Center
06:45PM 43.7542 -98.2086 95° East 504 580 35,000  Level Minneapolis Center
06:47PM 43.7417 -98.0175 95° East 502 578 35,000  Level Minneapolis Center
06:48PM 43.7294 -97.8269 95° East 501 577 35,000  Level Minneapolis Center
06:49PM 43.7150 -97.6358 96° East 502 578 35,000  Level Minneapolis Center
06:50PM 43.7000 -97.4467 96° East 500 575 35,000  Level Minneapolis Center
06:51PM 43.6836 -97.2178 96° East 503 579 35,000  Level Minneapolis Center
06:52PM 43.6689 -97.0289 96° East 499 574 35,000  Level Minneapolis Center
06:53PM 43.6539 -96.8400 96° East 498 573 35,000  Level Minneapolis Center
06:54PM 43.6319 -96.6558 99° East 493 567 35,000  Level Minneapolis Center
06:55PM 43.6042 -96.4700 102° East 496 571 35,000  Level Minneapolis Center
06:56PM 43.5761 -96.2842 102° East 498 573 35,000  Level Minneapolis Center
06:57PM 43.5431 -96.0617 102° East 499 574 35,000  Level Minneapolis Center
06:58PM 43.5161 -95.8778 101° East 496 571 35,000  Level Minneapolis Center
06:59PM 43.4875 -95.6950 102° East 493 567 35,000  Level Minneapolis Center
07:00PM 43.4592 -95.5122 102° East 493 567 35,000  Level Minneapolis Center
07:01PM 43.4300 -95.3311 102° East 490 564 35,000  Level Minneapolis Center
07:02PM 43.3950 -95.1106 102° East 493 567 35,000  Level Minneapolis Center
07:03PM 43.3658 -94.9247 102° East 498 573 35,000  Level Minneapolis Center
07:04PM 43.3375 -94.7400 102° East 497 572 35,000  Level Minneapolis Center
07:05PM 43.3078 -94.5564 102° East 496 571 35,000  Level Minneapolis Center
07:06PM 43.2758 -94.3742 103° East 493 567 35,000  Level Minneapolis Center
07:07PM 43.2436 -94.1778 103° East 496 571 35,000  Level Minneapolis Center
07:08PM 43.2114 -93.9975 104° East 493 567 35,000  Level Minneapolis Center
07:09PM 43.1800 -93.8158 103° East 495 570 35,000  Level Minneapolis Center
07:10PM 43.1408 -93.5986 104° East 494 568 35,000  Level Minneapolis Center
07:11PM 43.1094 -93.4167 103° East 496 571 35,000  Level Minneapolis Center
07:12PM 43.0875 -93.2319 99° East 495 570 35,000  Level Minneapolis Center
07:13PM 43.0764 -93.0444 95° East 498 573 35,000  Level Minneapolis Center
07:14PM 43.0633 -92.8578 95° East 500 575 35,000  Level Minneapolis Center
07:15PM 43.0483 -92.6339 95° East 497 572 35,000 -180 Level Minneapolis Center
07:16PM 43.0439 -92.5969 99° East 497 572 34,800 -900 Descending Chicago Center
07:17PM 43.0303 -92.4067 96° East 506 582 33,900 -900 Descending Chicago Center
07:18PM 43.0203 -92.2528 95° East 509 586 33,200 -900 Descending Minneapolis Center
07:18PM 43.0164 -92.2139 98° East 512 589 33,000 -900 Descending Chicago Center
07:19PM 43.0064 -92.0600 95° East 512 589 32,300 -780 Descending Minneapolis Center
07:19PM 43.0025 -92.0228 98° East 510 587 32,200 -900 Descending Chicago Center
07:20PM 42.9869 -91.7961 95° East 500 575 31,200 -600 Descending Chicago Center
07:21PM 42.9706 -91.6050 97° East 501 577 31,000 -120 Descending Chicago Center
07:22PM 42.9594 -91.4506 96° East 502 578 31,000 -60 Level Minneapolis Center
07:23PM 42.9406 -91.2622 98° East 499 574 30,900 -240 Descending Minneapolis Center
07:23PM 42.9361 -91.2253 99° East 501 577 30,700 -960 Descending Chicago Center
07:24PM 42.9033 -91.0378 103° East 511 588 29,700 -1,020 Descending Chicago Center
07:25PM 42.8731 -90.8556 103° East 498 573 28,700 -1,080 Descending Chicago Center
07:26PM 42.8369 -90.6458 103° East 478 550 27,500 -1,080 Descending Chicago Center
07:27PM 42.8064 -90.4747 104° East 470 541 26,500 -1,020 Descending Chicago Center
07:28PM 42.7764 -90.3031 103° East 469 540 25,500 -1,020 Descending Chicago Center
07:29PM 42.7464 -90.1311 103° East 471 542 24,500 -780 Descending Chicago Center
07:30PM 42.7150 -89.9611 104° East 468 539 24,000 -420 Descending Chicago Center
07:31PM 42.6814 -89.7783 104° East 458 527 23,700 -660 Descending Chicago Center
07:32PM 42.6517 -89.6106 103° East 457 526 22,700 -1,320 Descending Chicago Center
07:33PM 42.6153 -89.4175 104° East 454 522 21,000 -1,860 Descending Chicago Center
07:34PM 42.5850 -89.2517 104° East 452 520 18,900 -2,040 Descending Chicago Center
07:35PM 42.5539 -89.0947 105° East 436 502 16,800 -2,100 Descending Chicago Center
07:36PM 42.5106 -88.9511 112° Southeast 415 478 14,600 -2,160 Descending Chicago Center
07:37PM 42.4706 -88.8136 111° Southeast 395 455 12,400 -2,040 Descending Chicago Center
07:38PM 42.4258 -88.6686 113° Southeast 360 414 10,500 -1,440 Descending Chicago Center
07:39PM 42.3936 -88.5608 112° Southeast 325 374 9,500 -1,020 Descending Chicago Center
07:41PM 42.3617 -88.4589 113° Southeast 304 350 8,500 -1,020 Descending Chicago Center
07:42PM 42.3264 -88.3578 115° Southeast 283 326 7,400 -780 Descending Chicago Center
07:43PM 42.2833 -88.2683 123° Southeast 287 330 7,000 -240 Descending Chicago Center
07:44PM 42.2242 -88.1958 138° Southeast 288 331 7,000 -360 Level Chicago Center
07:45PM 42.1681 -88.1319 140° Southeast 273 314 6,300 -1,020 Descending Chicago Center
07:46PM 42.1181 -88.0775 141° Southeast 240 276 5,000 -1,380 Descending Chicago Center
07:47PM 42.0736 -88.0272 140° Southeast 222 255 3,500 -1,620 Descending Chicago Center
07:47PM 42.0667 -88.0167 132° Southeast 177 204 2,900 -1,440 Descending Chicago TRACON
07:48PM 42.0333 -87.9833 143° Southeast 127 146 1,700 -1,200 Descending Chicago TRACON